ZŁOTY PÓŁMARATON - 21 KM
Dolnośląski Festiwal Biegów Górskich
Organizator : Stowarzyszenie TKKF Kompas
Data : 2017-07-20
Miejsce : Lądek Zdrój
Dystans : 21 km
Zgłoszonych : 418
Wystartowało : 367
Nie ukończyło : 6
Ukończyło : 361
Na trasie : 0
Pełne wyniki :
Uproszczone :
Lista nagrodzonych : Open i wiekowe
Klasyfikacja wg czasu brutto. Wyniki nieoficjalne !!!
MscZawodnikNumerKlubMiejscowośćKrajKategoriaMkatK/MCzas startuB1
10km
Czas
netto
21km
Czas
brutto
21km
Różn.Tempo
min/km
Tempo
km/h
        
1NÁPRAVNÍK Jan 2382RTYNĚ V PODKRKONOŠÍSenior II M - 30 1M 200:00:0300:55:2501:40:52.1501:40:55.85 4:4812,5
2WOLAŃSKI Jan 2338Stal Fox BimarkoOŁAWASenior II M - 30 2M 300:00:0701:01:2601:44:23.5501:44:31.05+00:03:354:5812,1
3WILK Maciej 2189Rambo 3BYTOMSenior II M - 30 3M 400:00:1700:59:2701:44:24.8001:44:42.70+00:03:464:5812,1
4PAJĄK Tomasz 2304Vege RunnersWARSZAWASenior II M - 30 4M 700:00:0901:01:0801:47:47.4501:47:57.40+00:07:015:0811,7
5MYSZCZYSZYN Łukasz 2093ANTRACYTKUDOWA ZDRÓJSenior II M - 30 5M 800:00:0201:01:0001:48:36.5001:48:39.10+00:07:435:1011,6
6KOWAL Amadeusz 2377Naprzód MłocinyLUBACZÓWSenior II M - 30 6M 900:00:0401:02:0301:49:34.0501:49:38.55+00:08:425:1311,5
7PRZYBYLSKI Łukasz 2218KS IdmarMOSINASenior II M - 30 7M 1100:00:0301:03:5301:52:47.5501:52:50.90+00:11:555:2211,2
8DURMAJ Bartek 2014WROCŁAWSenior II M - 30 8M 1200:00:0401:05:0001:53:31.3001:53:36.10+00:12:405:2411,1
9KSIĄŻKIEWICZ Bartłomiej 2081Rocky Balboa Running ClubBYTOMSenior II M - 30 9M 1500:00:1701:03:5401:54:52.7001:55:09.70+00:14:135:2811,0
10PIRÓG Arkadiusz 2386PISFAKSenior II M - 30 10M 1600:00:0201:06:1001:55:11.9501:55:14.25+00:14:185:2910,9
11BRZESZKIEWICZ Michał 2411Biegiem po piwoSenior II M - 30 11M 2200:00:0801:07:4701:58:01.7001:58:10.30+00:17:145:3710,7
12URBANEK Zbyszek 2275PSZCZYNASenior II M - 30 12M 2300:00:0201:08:0801:58:23.6501:58:26.10+00:17:305:3810,6
13CITKO Maciej 2208Bieg OpolskiOPOLESenior II M - 30 13M 2500:00:1201:10:1002:02:33.0502:02:45.50+00:21:495:5010,3
14MAJCHRZAK Marcin 2367Deloitte Adventure TeamSWARZĘDZSenior II M - 30 14M 2700:00:0801:07:1202:03:09.1502:03:17.25+00:22:215:5110,2
15PAWLAK Bartosz 2370Załoga GorskaOSTRÓW WIELKOPOLSKISenior II M - 30 15M 3100:00:0401:10:0502:08:24.9002:08:29.85+00:27:346:069,8
16JANKOWSKI Janusz 2358NYSASenior II M - 30 16M 3200:00:3301:12:4502:08:03.0502:08:36.30+00:27:406:059,8
17MOLENDA Maciej 2127Ronal Polska RunWAŁBRZYCHSenior II M - 30 17M 3300:00:1901:15:2102:09:11.1002:09:30.25+00:28:346:099,8
18DEMKOWSKI Marcin 2313WROCŁAWSenior II M - 30 18M 3600:00:2601:15:1902:11:10.0502:11:36.50+00:30:406:149,6
19CHODOROWSKI Krzysztof 2135Przebiega.plWROCŁAWSenior II M - 30 19M 3700:00:1501:13:0302:11:35.6502:11:50.80+00:30:546:159,6
20ANTOSIAK Tomasz 2132Triathlon Mietków TeamZŁOTORYJASenior II M - 30 20M 3800:00:1101:16:3302:11:43.3502:11:54.35+00:30:586:169,6
21OLESZAK Piotr 2280STREFA CHILLOUT'u / I LOVE ZIEMEKŚRODA WIELKOPOLSKASenior II M - 30 21M 4000:00:1801:16:0802:12:40.1002:12:58.20+00:32:026:199,5
22PAWLAK Gabriel 2321ErgoconceptRADWANICWSenior II M - 30 22M 4100:00:0801:17:3302:13:08.8502:13:17.30+00:32:216:209,5
23KOSMALA Szymon 2150DĄBRÓWKASenior II M - 30 23M 4200:00:3301:15:2802:13:17.8002:13:51.45+00:32:556:209,5
24KUBACKA Sebastian 2243WROCŁAWSenior II M - 30 24M 4600:00:0401:15:5802:14:15.9502:14:20.10+00:33:246:239,4
25BIEŃKOWSKI Kamil 2018BE BETTERRADWANICESenior II M - 30 25M 4900:00:5301:16:0602:14:26.0002:15:19.10+00:34:236:249,4
26STEMPNIAK Daniel 2210KS Maraton Ostrów Wlkp.OSTRÓW WIELKOPOLSKISenior II M - 30 26M 5100:00:0501:17:1902:15:52.1502:15:57.90+00:35:026:289,3
27BACA Łukasz 2252Rambo 3BYTOMSenior II M - 30 27M 5300:00:2401:18:5602:16:25.4002:16:50.10+00:35:546:299,2
28UHEREK Michał 2260yodaWROCŁAWSenior II M - 30 28M 5400:00:3001:16:4402:16:39.9502:17:10.70+00:36:146:309,2
29OLESZOWSKI Marcin 2332LUXONWROCŁAWSenior II M - 30 29M 5700:00:2501:13:4202:17:24.3502:17:49.75+00:36:536:329,2
30BUDZIŃSKI Damian 2269Nysa BiegaNYSASenior II M - 30 30M 5800:00:2201:19:3202:17:33.6002:17:56.10+00:37:006:339,2
31JANKOWIAK Krzysztof 2012MarcoKROSINKOSenior II M - 30 31M 6000:00:0901:18:1702:17:55.0002:18:04.20+00:37:086:349,1
32BADEWICZ Tomasz 2259GARAGE JIM BEAMKRAPKOWICESenior II M - 30 32M 6100:00:1501:15:2702:18:39.1502:18:54.95+00:37:596:369,1
33LEWANDOWSKI Piotr 2102JACZKOWICESenior II M - 30 33M 6200:00:2601:19:0602:18:32.5002:18:59.45+00:38:036:359,1
34DRUMMOND Adam 2113Serpentine RCLONDONSenior II M - 30 34M 6600:00:3701:22:2202:19:07.0502:19:44.65+00:38:486:379,1
35OSTROWSKI Paweł 2347Rehmedica.plKRZESZOWICESenior II M - 30 35M 6700:00:0601:18:1902:19:37.9002:19:44.70+00:38:486:389,0
36CZARNIECKI Daniel 2128TIE-RUNPOLANICA-ZDRÓJSenior II M - 30 36M 6800:00:1501:16:4102:19:38.1502:19:53.80+00:38:576:389,0
37SAJEWICZ Grzegorz 2261WROCŁAWSenior II M - 30 37M 7000:00:1701:21:1802:19:37.5502:19:55.20+00:38:596:389,0
38ORZECHOWSKI Daniel 2320i-SportWARSZAWASenior II M - 30 38M 7100:00:2301:22:0702:19:43.0502:20:06.45+00:39:106:399,0
39FUKS Michał 2315grupa fuxWROCŁAWSenior II M - 30 39M 7200:00:2801:21:4402:20:06.7502:20:35.55+00:39:396:409,0
40SUCH Arkadiusz 2389Rzeszowskie Gazele i GepardySenior II M - 30 40M 7300:00:4701:20:4402:20:00.4502:20:47.70+00:39:516:409,0
41PIENIĘŻNY Marek 2251KOŹMIN BIEGAKOŹMIN WIELKOPOLSKISenior II M - 30 41M 7500:00:1101:21:5902:20:56.4002:21:08.10+00:40:126:428,9
42OCHMAN Paweł 2361Future Processing Running TeamGLIWICESenior II M - 30 42M 7700:00:1601:20:4102:20:56.1502:21:12.20+00:40:166:428,9
43WOJCZUK Paweł 2106LĄDEK ZDRÓJSenior II M - 30 43M 7800:00:2401:15:4002:21:00.2002:21:24.30+00:40:286:428,9
44FĄFARA Marek 2284KS KOZIOŁEK Kędzierzyn-KoźleKEDZIERZYN-KOŹLESenior II M - 30 44M 7900:00:1001:23:2202:21:15.9002:21:26.15+00:40:306:438,9
45OZIMEK Michał 2378Pro Run WrocławSTRZEGOMSenior II M - 30 45M 8100:00:1301:22:1902:22:47.4002:23:00.70+00:42:046:478,8
46NAJDEREK Maciej 2201Piękna HelenaPOZNAŃSenior II M - 30 46M 8400:00:1901:18:2102:23:14.5502:23:33.80+00:42:376:498,8
47CZERWONKA Zbigniew 23241983WROCŁAWSenior II M - 30 47M 8500:00:0601:24:3802:23:28.1002:23:34.90+00:42:396:498,8
48HACZKIEWICZ Bartosz 2357Milky2017STRONIE ŚLĄSKIESenior II M - 30 48M 8600:00:3801:17:5102:23:14.0502:23:52.25+00:42:566:498,8
49KRUPA Bartłomiej 2110LĄDEK ZDRÓJSenior II M - 30 49M 8800:00:3201:22:3102:23:50.9002:24:23.55+00:43:276:518,8
50PIOTROWSKI Rafael 2418Senior II M - 30 50M 8900:00:1001:20:4702:24:47.0002:24:57.00+00:44:016:538,7
51LASZCZYŃSKI Michał 2240BORÓWSenior II M - 30 51M 9000:00:2901:23:3002:25:12.2502:25:42.20+00:44:466:548,7
52GRĘDA Mariusz 2134OZIMEKSenior II M - 30 52M 9200:00:0501:20:3002:25:55.7502:26:01.45+00:45:056:568,6
53SZARLEJ Piotr 2319Fudu&Co. Sport teamPIOTRKÓW TRYBUNALSKISenior II M - 30 53M 9300:00:1401:19:4202:25:53.0002:26:07.85+00:45:126:568,6
54MALENDOWICZ Przemysław 2151WROCŁAWSenior II M - 30 54M 9400:00:3001:21:4802:26:35.2502:27:05.45+00:46:096:588,6
55WYSTRYCHOWSKI Marcin 2220bfagencja.plWARSZAWASenior II M - 30 55M 9700:00:0501:16:2702:28:12.9502:28:18.80+00:47:227:038,5
56HOFMAN Paweł 2381KALISZSenior II M - 30 56M 9900:00:1101:22:3202:28:30.9502:28:42.85+00:47:477:048,5
57ŚRÓDKA Bartłomiej 2245TRZEBNICASenior II M - 30 57M 10000:00:2801:26:5502:28:45.8502:29:13.85+00:48:187:058,5
58CIESIELSKI Sebastian 2021Kibole w biegu / Pakieciarze TeamPOZNAŃSenior II M - 30 58M 10200:00:1801:27:0902:29:53.4002:30:12.25+00:49:167:088,4
59RYCHLEWICZ Tomasz 2078WROCŁAWSenior II M - 30 59M 10400:00:2001:25:0802:30:07.3002:30:27.80+00:49:317:088,4
60JĘDRYCA Przemysław 2412SPARTA ULTRA TEAMSenior II M - 30 60M 10600:00:3401:22:1102:30:23.8502:30:58.60+00:50:027:098,4
61KOSTROWICKI Jakub 2121Sieradzbiega.plPIŁASenior II M - 30 61M 10800:00:0601:25:4002:31:09.4502:31:15.80+00:50:197:118,3
62TROJANOWSKI Jakub 2273KIEŁCZÓWSenior II M - 30 62M 11000:00:1801:26:1002:31:11.2002:31:29.25+00:50:337:118,3
63PYTEL Mateusz 2070NETBOX BiegaGOSTYŃSenior II M - 30 63M 11100:00:4401:28:5702:30:51.8002:31:36.10+00:50:407:118,4
64GINTER Grzegorz 2390AZS Collegium Medicum UJSenior II M - 30 64M 11200:00:1101:31:3602:31:28.8002:31:40.10+00:50:447:128,3
65CHĘCIŃSKI Łukasz 2063ALEKSANDRIA IISenior II M - 30 65M 11300:00:2201:24:4302:31:28.0502:31:50.05+00:50:547:128,3
66WOJCIECHOWSKI Mateusz 2117KALISZSenior II M - 30 66M 11800:00:3401:25:2302:32:12.5002:32:46.90+00:51:517:148,3
67MICHAŁOWICZ Marek 2392Senior II M - 30 67M 11900:00:1201:26:1502:32:35.6502:32:48.45+00:51:527:168,3
68GAŁKA Stanisław 2283Flunkyball Team Lądek ZdrójLĄDEK ZDRÓJSenior II M - 30 68M 12000:00:1301:25:1002:33:18.4002:33:31.55+00:52:357:188,2
69SZMAJDA Dominik 2297Nie Mam PomysłuŁÓDŹSenior II M - 30 69M 12200:00:0501:25:3602:33:43.4502:33:49.10+00:52:537:198,2
70SADOWSKI Piotr 2016OSTRÓDA RESCUE TEAMOSTRÓDASenior II M - 30 70M 12700:00:2102:35:11.3002:35:32.30+00:54:367:238,1
71MAZIEC Roman 2340CHOJNÓWSenior II M - 30 71M 12900:00:0301:28:5802:36:06.4002:36:10.05+00:55:147:268,1
72OLESZAK Jacek 2279PollineŚRODA WIELKOPOLSKASenior II M - 30 72M 13000:00:1901:27:3902:36:19.7002:36:38.70+00:55:427:268,1
73KULAK Michal 2230MILTON KEYNESSenior II M - 30 73M 13400:00:2201:28:0202:37:30.4502:37:52.45+00:56:567:308,0
74SKORUPSKI Szymon 2353KURACJUSZESTRZELINSenior II M - 30 74M 13500:00:0701:29:1202:38:14.4002:38:22.30+00:57:267:328,0
75SAJEWICZ Piotr 2257TURBINA BALAKOWOWROCLAWSenior II M - 30 75M 13800:00:1901:30:1902:39:12.1002:39:31.55+00:58:357:347,9
76STACHLIK Dawid 2410Senior II M - 30 76M 13900:00:1201:31:2302:39:49.2502:40:02.05+00:59:067:367,9
77BARTKIEWICZ Ireneusz 2250ZAGOŚCINIECSenior II M - 30 77M 14000:00:2801:28:5702:40:12.9002:40:40.95+00:59:457:377,9
78MATAK Paweł 2186RADZYMINSenior II M - 30 78M 14100:00:2601:29:2002:40:14.3502:40:41.10+00:59:457:377,9
79ROSŁON Cezary 2187RADZYMINSenior II M - 30 79M 14200:00:2902:40:11.6502:40:41.25+00:59:457:377,9
80BĄKOWSKI Piotr 2330Zaparkowani/ Ośla ŁawkaGNIEZNOSenior II M - 30 80M 14400:00:2801:32:1102:40:50.3502:41:18.50+01:00:227:397,8
81WYBRAWIEC Tomasz 2409Senior II M - 30 81M 14700:00:1301:29:2102:42:06.0002:42:19.20+01:01:237:437,8
82MICHALSKI Grzegorz 2277SezonStartowy.plWROCŁAWSenior II M - 30 82M 15100:00:1901:34:1202:43:42.8002:44:02.10+01:03:067:477,7
83DĄBROWSKI Roman 2289CHOJNICZKISenior II M - 30 83M 15200:00:1401:28:4802:43:49.8002:44:04.10+01:03:087:487,7
84KORDALEWSKI Łukasz 2140nc+ALEKSANDRÓWKASenior II M - 30 84M 15300:00:4901:34:4602:43:20.5002:44:09.90+01:03:147:467,7
85CZESKI Wojciech 2013Mosina biegaMOSINASenior II M - 30 85M 15400:00:2701:34:4702:44:39.4002:45:07.30+01:04:117:507,7
86RABSZTYN Andrzej 2356Triathlon Mietków TeamWROCŁAWSenior II M - 30 86M 15500:00:1101:31:5902:45:20.9002:45:32.70+01:04:367:527,6
87PRZETAKIEWICZ Maciej 2334MarcinŚwiercTeamWARSZAWASenior II M - 30 87M 15700:00:2601:32:4302:46:17.0502:46:43.60+01:05:477:557,6
88DRESZER Bartosz 2103PRZEWORNOSenior II M - 30 88M 15800:00:2401:25:2502:47:06.8002:47:31.30+01:06:357:577,5
89MORAWSKI Ryszard 2090WROCŁAWSenior II M - 30 89M 16100:00:0901:31:4002:48:50.7502:49:00.10+01:08:048:027,5
90RATAJCZAK Tomasz 2364Teraz albo nigdyPOZNAŃSenior II M - 30 90M 16300:00:5401:43:5702:48:48.0002:49:42.90+01:08:478:027,5
91PIETRASZEWSKI Tomasz 2005TSG MłóckarniaŁÓDŹSenior II M - 30 91M 16400:00:3101:34:2002:49:15.6502:49:46.75+01:08:508:037,4
92KOWALSKI Mariusz 2147WROCŁAWSenior II M - 30 92M 17200:00:4201:35:5402:51:52.5002:52:35.00+01:11:398:117,3
93OSICA Łukasz 2328ŚWIĘTOCHŁOWICESenior II M - 30 93M 17400:00:5001:35:1302:52:00.6002:52:50.90+01:11:558:117,3
94POCIĘGIEL Michał 2083RADZISZÓWSenior II M - 30 94M 17600:00:1101:37:3802:52:55.3502:53:06.70+01:12:108:147,3
95PAWLIK Tomasz 2282JB WarsawWARSZAWASenior II M - 30 95M 17900:00:3701:41:3402:53:33.0502:54:10.05+01:13:148:157,3
96STASZEWSKI Dariusz 2022TOMASZÓW MAZOWIECISenior II M - 30 96M 18200:00:4301:36:5202:56:12.9002:56:56.25+01:16:008:237,2
97BAŃKA Grzegorz 2092WARSZAWASenior II M - 30 97M 18500:00:3401:36:5602:56:33.0502:57:07.25+01:16:118:247,1
98KOSZYK Rafał 2088OPOLESenior II M - 30 98M 18600:00:4501:44:0002:57:24.5002:58:09.50+01:17:138:267,1
99WOŁOS Marcin 2071BOCHNIASenior II M - 30 99M 18800:00:3601:40:3203:01:33.4503:02:09.60+01:21:138:386,9
100PATYRA Łukasz 2119WROCŁAWSenior II M - 30 100M 19000:00:2101:42:5803:02:09.0003:02:30.35+01:21:348:406,9
101TRZPIOŁA Tycjan 2318KURACJUSZELEGNICASenior II M - 30 101M 19200:00:2201:40:1003:02:37.5503:03:00.15+01:22:048:416,9
102MARZYCKI Wojciech 2234WARSZAWASenior II M - 30 102M 19400:00:4901:46:1703:03:03.2503:03:53.10+01:22:578:436,9
103TOMCZYK Marek 2372WARSZAWASenior II M - 30 103M 19500:00:5401:40:1703:03:46.8003:04:40.90+01:23:458:456,9
104DEMBNY Bogdan 2288SYCÓWSenior II M - 30 104M 20300:00:5001:46:4903:15:34.0503:16:25.00+01:35:299:186,4
105JAŹNIECKI Marcin 2391MUAY Running TeamSenior II M - 30 105M 20400:00:3701:47:2703:17:11.5003:17:48.70+01:36:529:236,4
106CHROMIŃSKI Maciej 2032brakGORZÓW WLKP.Senior II M - 30 106M 21300:00:3501:56:5703:37:05.2003:37:40.60+01:56:4410:205,8
Niesklasyfikowani
SZKWAREK Adrian 2118LADEK ZDROJSenior II M - 30 DNF DNF DNF DNF--
KIERZKOWSKI Przemysław 2142POZNAŃSenior II M - 30 DNF DNF DNF DNF--
BANASZEK Adam 2393BIEGUSIEM.PLSenior II M - 30 DNF DNF DNF DNF--
Znaleziono 109 wynik(ów)